Minerva, Ohio
Current Conditions -  °F | °C
As of 1:04 PM on Monday 24 Nov 2014 (Local Time) from KCAK Reporting Station
Light Rain Light Rain  
Wind Chill: 57°   Ceiling: 3600
Heat Index: 57°   Visibility: 5mi
Dew Point: 48°   Wind: 36mph
Humidity: 72%   Direction: 240°WSW
Pressure: 29.36"   Gusts: 62mph
Location:  40.73°N, 81.11°W
Report Text: KCAK 241804Z 24031G54KT 5SM -RA SQ BKN036 OVC065 14/09 A2936 RMK AO2 PK WND 25054/1758 PRESRR RAB00 P0000 $
Loading
Personal Weather Stations






























Interactive Weather Map New forecast layout! Learn more

10-Day Weather Forecast

Advertisements
Track Severe Weather on mobile